sensor_id;sensor_type;location;lat;lon;timestamp;P1;durP1;ratioP1;P2;durP2;ratioP2
33840;SDS011;20142;28.494;-16.312;2023-05-10T00:02:26;34.22;;;6.13;;
33840;SDS011;20142;28.494;-16.312;2023-05-10T00:07:28;34.03;;;5.53;;
33840;SDS011;20142;28.494;-16.312;2023-05-10T00:12:29;37.53;;;5.68;;
33840;SDS011;20142;28.494;-16.312;2023-05-10T00:17:31;42.05;;;5.72;;
33840;SDS011;20142;28.494;-16.312;2023-05-10T00:22:33;35.08;;;6.45;;
33840;SDS011;20142;28.494;-16.312;2023-05-10T00:27:35;35.33;;;5.88;;
33840;SDS011;20142;28.494;-16.312;2023-05-10T00:32:36;39.17;;;5.70;;
33840;SDS011;20142;28.494;-16.312;2023-05-10T00:37:38;32.58;;;4.95;;
33840;SDS011;20142;28.494;-16.312;2023-05-10T00:42:40;30.00;;;4.82;;
33840;SDS011;20142;28.494;-16.312;2023-05-10T00:47:41;30.58;;;5.60;;
33840;SDS011;20142;28.494;-16.312;2023-05-10T00:52:43;32.38;;;4.90;;
33840;SDS011;20142;28.494;-16.312;2023-05-10T00:57:45;33.70;;;6.15;;
33840;SDS011;20142;28.494;-16.312;2023-05-10T01:02:48;26.92;;;4.10;;
33840;SDS011;20142;28.494;-16.312;2023-05-10T01:07:50;25.30;;;4.38;;
33840;SDS011;20142;28.494;-16.312;2023-05-10T01:12:52;23.70;;;4.70;;
33840;SDS011;20142;28.494;-16.312;2023-05-10T01:17:54;20.70;;;4.13;;
33840;SDS011;20142;28.494;-16.312;2023-05-10T01:34:09;27.08;;;4.15;;
33840;SDS011;20142;28.494;-16.312;2023-05-10T01:39:21;21.67;;;3.55;;
33840;SDS011;20142;28.494;-16.312;2023-05-10T01:55:02;33.40;;;6.07;;
33840;SDS011;20142;28.494;-16.312;2023-05-10T02:00:10;23.15;;;4.32;;
33840;SDS011;20142;28.494;-16.312;2023-05-10T02:05:14;29.17;;;5.40;;
33840;SDS011;20142;28.494;-16.312;2023-05-10T02:10:18;31.27;;;5.88;;
33840;SDS011;20142;28.494;-16.312;2023-05-10T02:15:22;25.88;;;5.22;;
33840;SDS011;20142;28.494;-16.312;2023-05-10T02:20:25;29.77;;;6.20;;
33840;SDS011;20142;28.494;-16.312;2023-05-10T02:25:28;36.50;;;5.43;;
33840;SDS011;20142;28.494;-16.312;2023-05-10T02:30:31;33.70;;;6.40;;
33840;SDS011;20142;28.494;-16.312;2023-05-10T02:35:34;43.67;;;6.15;;
33840;SDS011;20142;28.494;-16.312;2023-05-10T02:40:38;31.30;;;5.55;;
33840;SDS011;20142;28.494;-16.312;2023-05-10T02:45:43;37.92;;;5.53;;
33840;SDS011;20142;28.494;-16.312;2023-05-10T02:50:48;30.90;;;6.25;;
33840;SDS011;20142;28.494;-16.312;2023-05-10T02:55:53;31.92;;;5.68;;
33840;SDS011;20142;28.494;-16.312;2023-05-10T03:01:01;25.85;;;5.13;;
33840;SDS011;20142;28.494;-16.312;2023-05-10T03:06:03;36.63;;;5.82;;
33840;SDS011;20142;28.494;-16.312;2023-05-10T03:16:45;30.33;;;5.03;;
33840;SDS011;20142;28.494;-16.312;2023-05-10T03:21:55;30.85;;;5.65;;
33840;SDS011;20142;28.494;-16.312;2023-05-10T03:27:00;34.47;;;5.68;;
33840;SDS011;20142;28.494;-16.312;2023-05-10T03:32:04;31.02;;;5.95;;
33840;SDS011;20142;28.494;-16.312;2023-05-10T03:37:06;30.98;;;5.57;;
33840;SDS011;20142;28.494;-16.312;2023-05-10T03:42:08;35.38;;;6.30;;
33840;SDS011;20142;28.494;-16.312;2023-05-10T03:47:12;46.08;;;6.70;;
33840;SDS011;20142;28.494;-16.312;2023-05-10T03:52:14;31.13;;;6.05;;
33840;SDS011;20142;28.494;-16.312;2023-05-10T03:57:15;36.97;;;7.05;;
33840;SDS011;20142;28.494;-16.312;2023-05-10T04:02:17;41.20;;;6.13;;
33840;SDS011;20142;28.494;-16.312;2023-05-10T04:07:19;42.38;;;6.65;;
33840;SDS011;20142;28.494;-16.312;2023-05-10T04:12:20;30.15;;;6.18;;
33840;SDS011;20142;28.494;-16.312;2023-05-10T04:17:22;27.83;;;6.32;;
33840;SDS011;20142;28.494;-16.312;2023-05-10T04:22:24;38.22;;;5.78;;
33840;SDS011;20142;28.494;-16.312;2023-05-10T04:27:25;36.67;;;5.95;;
33840;SDS011;20142;28.494;-16.312;2023-05-10T04:32:27;33.88;;;6.10;;
33840;SDS011;20142;28.494;-16.312;2023-05-10T04:37:30;31.42;;;5.60;;
33840;SDS011;20142;28.494;-16.312;2023-05-10T04:42:31;30.83;;;5.50;;
33840;SDS011;20142;28.494;-16.312;2023-05-10T04:47:33;32.60;;;5.72;;
33840;SDS011;20142;28.494;-16.312;2023-05-10T04:52:35;32.05;;;5.35;;
33840;SDS011;20142;28.494;-16.312;2023-05-10T04:57:37;28.17;;;5.25;;
33840;SDS011;20142;28.494;-16.312;2023-05-10T05:02:41;35.20;;;5.57;;
33840;SDS011;20142;28.494;-16.312;2023-05-10T05:07:46;36.70;;;5.65;;
33840;SDS011;20142;28.494;-16.312;2023-05-10T05:12:48;36.28;;;6.28;;
33840;SDS011;20142;28.494;-16.312;2023-05-10T05:17:50;34.53;;;6.28;;
33840;SDS011;20142;28.494;-16.312;2023-05-10T05:22:52;36.97;;;6.80;;
33840;SDS011;20142;28.494;-16.312;2023-05-10T05:27:53;38.60;;;7.10;;
33840;SDS011;20142;28.494;-16.312;2023-05-10T05:32:55;45.28;;;6.90;;
33840;SDS011;20142;28.494;-16.312;2023-05-10T05:37:57;42.45;;;7.03;;
33840;SDS011;20142;28.494;-16.312;2023-05-10T05:42:59;41.53;;;7.78;;
33840;SDS011;20142;28.494;-16.312;2023-05-10T05:48:00;35.95;;;6.82;;
33840;SDS011;20142;28.494;-16.312;2023-05-10T05:53:02;31.00;;;5.25;;
33840;SDS011;20142;28.494;-16.312;2023-05-10T05:58:04;32.78;;;6.18;;
33840;SDS011;20142;28.494;-16.312;2023-05-10T06:03:05;39.10;;;7.15;;
33840;SDS011;20142;28.494;-16.312;2023-05-10T06:08:07;31.38;;;6.30;;
33840;SDS011;20142;28.494;-16.312;2023-05-10T06:13:09;39.38;;;6.38;;
33840;SDS011;20142;28.494;-16.312;2023-05-10T06:18:11;41.70;;;6.68;;
33840;SDS011;20142;28.494;-16.312;2023-05-10T06:23:13;40.53;;;6.65;;
33840;SDS011;20142;28.494;-16.312;2023-05-10T06:28:14;39.20;;;5.95;;
33840;SDS011;20142;28.494;-16.312;2023-05-10T06:33:16;36.47;;;5.65;;
33840;SDS011;20142;28.494;-16.312;2023-05-10T06:38:17;36.53;;;6.03;;
33840;SDS011;20142;28.494;-16.312;2023-05-10T06:43:19;33.40;;;5.80;;
33840;SDS011;20142;28.494;-16.312;2023-05-10T06:48:21;35.17;;;7.05;;
33840;SDS011;20142;28.494;-16.312;2023-05-10T06:53:23;31.95;;;5.70;;
33840;SDS011;20142;28.494;-16.312;2023-05-10T06:58:24;43.95;;;7.82;;
33840;SDS011;20142;28.494;-16.312;2023-05-10T07:03:26;31.25;;;6.32;;
33840;SDS011;20142;28.494;-16.312;2023-05-10T07:08:28;46.67;;;7.38;;
33840;SDS011;20142;28.494;-16.312;2023-05-10T07:13:31;35.75;;;6.93;;
33840;SDS011;20142;28.494;-16.312;2023-05-10T07:18:33;29.45;;;5.85;;
33840;SDS011;20142;28.494;-16.312;2023-05-10T07:23:37;43.20;;;6.40;;
33840;SDS011;20142;28.494;-16.312;2023-05-10T07:28:39;43.72;;;6.35;;
33840;SDS011;20142;28.494;-16.312;2023-05-10T07:33:41;31.73;;;6.68;;
33840;SDS011;20142;28.494;-16.312;2023-05-10T07:38:42;33.20;;;6.22;;
33840;SDS011;20142;28.494;-16.312;2023-05-10T07:43:44;32.90;;;6.43;;
33840;SDS011;20142;28.494;-16.312;2023-05-10T07:48:46;29.23;;;6.88;;
33840;SDS011;20142;28.494;-16.312;2023-05-10T07:53:47;33.45;;;6.25;;
33840;SDS011;20142;28.494;-16.312;2023-05-10T07:58:49;33.95;;;6.03;;
33840;SDS011;20142;28.494;-16.312;2023-05-10T08:03:52;39.47;;;5.90;;
33840;SDS011;20142;28.494;-16.312;2023-05-10T08:08:53;31.42;;;5.53;;
33840;SDS011;20142;28.494;-16.312;2023-05-10T08:13:56;38.55;;;6.13;;
33840;SDS011;20142;28.494;-16.312;2023-05-10T08:18:57;34.85;;;5.75;;
33840;SDS011;20142;28.494;-16.312;2023-05-10T08:23:59;33.40;;;5.97;;
33840;SDS011;20142;28.494;-16.312;2023-05-10T08:29:01;31.85;;;5.97;;
33840;SDS011;20142;28.494;-16.312;2023-05-10T08:34:03;38.13;;;6.30;;
33840;SDS011;20142;28.494;-16.312;2023-05-10T08:39:05;33.17;;;6.15;;
33840;SDS011;20142;28.494;-16.312;2023-05-10T08:44:07;32.95;;;5.65;;
33840;SDS011;20142;28.494;-16.312;2023-05-10T08:49:09;43.08;;;6.28;;
33840;SDS011;20142;28.494;-16.312;2023-05-10T08:54:14;35.22;;;5.65;;
33840;SDS011;20142;28.494;-16.312;2023-05-10T08:59:16;38.50;;;5.85;;
33840;SDS011;20142;28.494;-16.312;2023-05-10T09:04:19;49.25;;;6.93;;
33840;SDS011;20142;28.494;-16.312;2023-05-10T09:09:21;37.72;;;6.13;;
33840;SDS011;20142;28.494;-16.312;2023-05-10T09:14:24;32.10;;;6.18;;
33840;SDS011;20142;28.494;-16.312;2023-05-10T09:19:27;32.33;;;5.63;;
33840;SDS011;20142;28.494;-16.312;2023-05-10T09:24:29;33.47;;;6.00;;
33840;SDS011;20142;28.494;-16.312;2023-05-10T09:29:42;31.73;;;5.80;;
33840;SDS011;20142;28.494;-16.312;2023-05-10T09:34:44;30.27;;;5.07;;
33840;SDS011;20142;28.494;-16.312;2023-05-10T09:39:45;32.80;;;5.35;;
33840;SDS011;20142;28.494;-16.312;2023-05-10T09:44:47;29.98;;;5.05;;
33840;SDS011;20142;28.494;-16.312;2023-05-10T09:49:49;36.15;;;5.97;;
33840;SDS011;20142;28.494;-16.312;2023-05-10T09:54:58;32.97;;;5.15;;
33840;SDS011;20142;28.494;-16.312;2023-05-10T10:00:00;37.33;;;6.22;;
33840;SDS011;20142;28.494;-16.312;2023-05-10T10:05:06;36.55;;;5.97;;
33840;SDS011;20142;28.494;-16.312;2023-05-10T10:10:08;28.70;;;4.90;;
33840;SDS011;20142;28.494;-16.312;2023-05-10T10:15:12;32.70;;;5.32;;
33840;SDS011;20142;28.494;-16.312;2023-05-10T10:20:15;30.63;;;5.22;;
33840;SDS011;20142;28.494;-16.312;2023-05-10T10:25:18;24.58;;;5.38;;
33840;SDS011;20142;28.494;-16.312;2023-05-10T10:35:40;24.95;;;4.75;;
33840;SDS011;20142;28.494;-16.312;2023-05-10T10:40:43;31.85;;;4.82;;
33840;SDS011;20142;28.494;-16.312;2023-05-10T10:45:47;31.60;;;4.88;;
33840;SDS011;20142;28.494;-16.312;2023-05-10T10:51:16;24.42;;;4.47;;
33840;SDS011;20142;28.494;-16.312;2023-05-10T10:56:18;30.05;;;5.45;;
33840;SDS011;20142;28.494;-16.312;2023-05-10T11:01:24;30.98;;;5.22;;
33840;SDS011;20142;28.494;-16.312;2023-05-10T11:06:36;25.02;;;4.45;;
33840;SDS011;20142;28.494;-16.312;2023-05-10T11:11:56;28.02;;;4.70;;
33840;SDS011;20142;28.494;-16.312;2023-05-10T11:16:59;27.63;;;5.30;;
33840;SDS011;20142;28.494;-16.312;2023-05-10T11:27:06;31.80;;;5.03;;
33840;SDS011;20142;28.494;-16.312;2023-05-10T11:32:08;26.40;;;4.93;;
33840;SDS011;20142;28.494;-16.312;2023-05-10T11:37:10;33.17;;;5.32;;
33840;SDS011;20142;28.494;-16.312;2023-05-10T11:42:12;23.50;;;4.75;;
33840;SDS011;20142;28.494;-16.312;2023-05-10T11:47:14;29.10;;;6.03;;
33840;SDS011;20142;28.494;-16.312;2023-05-10T11:52:15;27.25;;;5.10;;
33840;SDS011;20142;28.494;-16.312;2023-05-10T11:57:20;26.33;;;4.80;;
33840;SDS011;20142;28.494;-16.312;2023-05-10T12:02:28;26.08;;;5.45;;
33840;SDS011;20142;28.494;-16.312;2023-05-10T12:07:30;26.20;;;4.90;;
33840;SDS011;20142;28.494;-16.312;2023-05-10T12:12:38;29.10;;;5.43;;
33840;SDS011;20142;28.494;-16.312;2023-05-10T12:17:45;23.55;;;5.05;;
33840;SDS011;20142;28.494;-16.312;2023-05-10T12:22:51;25.75;;;4.80;;
33840;SDS011;20142;28.494;-16.312;2023-05-10T12:27:56;26.38;;;4.70;;
33840;SDS011;20142;28.494;-16.312;2023-05-10T12:33:08;23.30;;;4.45;;
33840;SDS011;20142;28.494;-16.312;2023-05-10T12:38:24;24.45;;;4.78;;
33840;SDS011;20142;28.494;-16.312;2023-05-10T12:43:33;28.70;;;5.32;;
33840;SDS011;20142;28.494;-16.312;2023-05-10T12:48:36;24.92;;;4.88;;
33840;SDS011;20142;28.494;-16.312;2023-05-10T12:53:39;25.00;;;5.03;;
33840;SDS011;20142;28.494;-16.312;2023-05-10T12:58:41;22.20;;;4.28;;
33840;SDS011;20142;28.494;-16.312;2023-05-10T13:03:48;27.85;;;4.90;;
33840;SDS011;20142;28.494;-16.312;2023-05-10T13:08:50;26.35;;;5.25;;
33840;SDS011;20142;28.494;-16.312;2023-05-10T13:13:52;23.17;;;4.32;;
33840;SDS011;20142;28.494;-16.312;2023-05-10T13:18:54;20.00;;;4.72;;
33840;SDS011;20142;28.494;-16.312;2023-05-10T13:23:55;27.92;;;5.45;;
33840;SDS011;20142;28.494;-16.312;2023-05-10T13:28:57;27.75;;;5.38;;
33840;SDS011;20142;28.494;-16.312;2023-05-10T13:33:59;24.42;;;3.75;;
33840;SDS011;20142;28.494;-16.312;2023-05-10T13:39:01;26.02;;;4.53;;
33840;SDS011;20142;28.494;-16.312;2023-05-10T13:44:04;20.55;;;3.67;;
33840;SDS011;20142;28.494;-16.312;2023-05-10T13:49:05;18.35;;;4.40;;
33840;SDS011;20142;28.494;-16.312;2023-05-10T13:54:07;26.25;;;5.25;;
33840;SDS011;20142;28.494;-16.312;2023-05-10T13:59:09;22.83;;;4.90;;
33840;SDS011;20142;28.494;-16.312;2023-05-10T14:04:11;15.25;;;3.05;;
33840;SDS011;20142;28.494;-16.312;2023-05-10T14:09:12;33.13;;;4.93;;
33840;SDS011;20142;28.494;-16.312;2023-05-10T14:14:14;27.02;;;5.53;;
33840;SDS011;20142;28.494;-16.312;2023-05-10T14:19:16;17.02;;;3.90;;
33840;SDS011;20142;28.494;-16.312;2023-05-10T14:24:18;18.35;;;4.13;;
33840;SDS011;20142;28.494;-16.312;2023-05-10T14:29:20;17.60;;;4.38;;
33840;SDS011;20142;28.494;-16.312;2023-05-10T14:34:22;15.35;;;4.03;;
33840;SDS011;20142;28.494;-16.312;2023-05-10T14:39:24;14.13;;;4.00;;
33840;SDS011;20142;28.494;-16.312;2023-05-10T14:44:26;18.30;;;4.50;;
33840;SDS011;20142;28.494;-16.312;2023-05-10T14:49:28;21.75;;;4.47;;
33840;SDS011;20142;28.494;-16.312;2023-05-10T14:54:30;11.32;;;3.20;;
33840;SDS011;20142;28.494;-16.312;2023-05-10T14:59:33;16.92;;;3.38;;
33840;SDS011;20142;28.494;-16.312;2023-05-10T15:04:35;18.70;;;3.92;;
33840;SDS011;20142;28.494;-16.312;2023-05-10T15:09:37;19.23;;;3.38;;
33840;SDS011;20142;28.494;-16.312;2023-05-10T15:14:39;11.27;;;3.17;;
33840;SDS011;20142;28.494;-16.312;2023-05-10T15:19:41;15.15;;;3.55;;
33840;SDS011;20142;28.494;-16.312;2023-05-10T15:24:43;13.60;;;3.47;;
33840;SDS011;20142;28.494;-16.312;2023-05-10T15:29:45;19.38;;;4.15;;
33840;SDS011;20142;28.494;-16.312;2023-05-10T15:34:47;15.90;;;4.32;;
33840;SDS011;20142;28.494;-16.312;2023-05-10T15:39:48;12.93;;;3.83;;
33840;SDS011;20142;28.494;-16.312;2023-05-10T15:44:50;14.65;;;3.88;;
33840;SDS011;20142;28.494;-16.312;2023-05-10T15:49:52;14.82;;;3.60;;
33840;SDS011;20142;28.494;-16.312;2023-05-10T15:54:54;15.60;;;4.05;;
33840;SDS011;20142;28.494;-16.312;2023-05-10T15:59:56;12.82;;;3.47;;
33840;SDS011;20142;28.494;-16.312;2023-05-10T16:04:58;13.65;;;3.45;;
33840;SDS011;20142;28.494;-16.312;2023-05-10T16:09:59;17.23;;;4.43;;
33840;SDS011;20142;28.494;-16.312;2023-05-10T16:15:04;13.55;;;3.90;;
33840;SDS011;20142;28.494;-16.312;2023-05-10T16:20:06;14.07;;;3.80;;
33840;SDS011;20142;28.494;-16.312;2023-05-10T16:25:09;14.73;;;3.45;;
33840;SDS011;20142;28.494;-16.312;2023-05-10T16:30:11;11.90;;;3.65;;
33840;SDS011;20142;28.494;-16.312;2023-05-10T16:35:13;14.80;;;3.55;;
33840;SDS011;20142;28.494;-16.312;2023-05-10T16:40:15;16.40;;;3.58;;
33840;SDS011;20142;28.494;-16.312;2023-05-10T16:45:18;17.95;;;4.57;;
33840;SDS011;20142;28.494;-16.312;2023-05-10T16:50:20;13.73;;;3.38;;
33840;SDS011;20142;28.494;-16.312;2023-05-10T16:55:21;12.88;;;3.60;;
33840;SDS011;20142;28.494;-16.312;2023-05-10T17:00:23;14.60;;;4.25;;
33840;SDS011;20142;28.494;-16.312;2023-05-10T17:05:29;12.63;;;3.28;;
33840;SDS011;20142;28.494;-16.312;2023-05-10T17:10:30;10.85;;;3.60;;
33840;SDS011;20142;28.494;-16.312;2023-05-10T17:15:34;14.48;;;3.90;;
33840;SDS011;20142;28.494;-16.312;2023-05-10T17:20:37;18.23;;;4.28;;
33840;SDS011;20142;28.494;-16.312;2023-05-10T17:25:38;13.35;;;3.15;;
33840;SDS011;20142;28.494;-16.312;2023-05-10T17:30:41;17.75;;;4.00;;
33840;SDS011;20142;28.494;-16.312;2023-05-10T17:35:44;11.73;;;3.85;;
33840;SDS011;20142;28.494;-16.312;2023-05-10T17:40:46;15.57;;;3.42;;
33840;SDS011;20142;28.494;-16.312;2023-05-10T17:45:48;17.00;;;4.22;;
33840;SDS011;20142;28.494;-16.312;2023-05-10T17:50:50;17.27;;;4.85;;
33840;SDS011;20142;28.494;-16.312;2023-05-10T17:55:51;17.27;;;4.63;;
33840;SDS011;20142;28.494;-16.312;2023-05-10T18:00:54;16.45;;;4.32;;
33840;SDS011;20142;28.494;-16.312;2023-05-10T18:05:57;19.02;;;4.30;;
33840;SDS011;20142;28.494;-16.312;2023-05-10T18:10:58;15.77;;;4.45;;
33840;SDS011;20142;28.494;-16.312;2023-05-10T18:16:00;16.90;;;4.38;;
33840;SDS011;20142;28.494;-16.312;2023-05-10T18:21:05;22.02;;;4.80;;
33840;SDS011;20142;28.494;-16.312;2023-05-10T18:26:07;16.10;;;3.97;;
33840;SDS011;20142;28.494;-16.312;2023-05-10T18:31:08;20.10;;;4.45;;
33840;SDS011;20142;28.494;-16.312;2023-05-10T18:36:11;17.67;;;3.80;;
33840;SDS011;20142;28.494;-16.312;2023-05-10T18:41:13;19.05;;;4.28;;
33840;SDS011;20142;28.494;-16.312;2023-05-10T18:46:15;21.15;;;4.75;;
33840;SDS011;20142;28.494;-16.312;2023-05-10T18:51:17;19.70;;;4.30;;
33840;SDS011;20142;28.494;-16.312;2023-05-10T18:56:19;19.08;;;4.30;;
33840;SDS011;20142;28.494;-16.312;2023-05-10T19:01:22;16.65;;;3.80;;
33840;SDS011;20142;28.494;-16.312;2023-05-10T19:06:23;26.45;;;4.60;;
33840;SDS011;20142;28.494;-16.312;2023-05-10T19:11:25;26.75;;;5.05;;
33840;SDS011;20142;28.494;-16.312;2023-05-10T19:16:30;19.67;;;4.63;;
33840;SDS011;20142;28.494;-16.312;2023-05-10T19:21:33;21.70;;;4.63;;
33840;SDS011;20142;28.494;-16.312;2023-05-10T19:26:35;20.65;;;4.40;;
33840;SDS011;20142;28.494;-16.312;2023-05-10T19:31:37;25.77;;;5.13;;
33840;SDS011;20142;28.494;-16.312;2023-05-10T19:36:39;23.77;;;5.00;;
33840;SDS011;20142;28.494;-16.312;2023-05-10T19:41:41;24.55;;;4.70;;
33840;SDS011;20142;28.494;-16.312;2023-05-10T19:46:43;28.77;;;4.68;;
33840;SDS011;20142;28.494;-16.312;2023-05-10T19:51:45;21.10;;;4.10;;
33840;SDS011;20142;28.494;-16.312;2023-05-10T19:56:47;26.85;;;5.15;;
33840;SDS011;20142;28.494;-16.312;2023-05-10T20:01:49;27.05;;;4.90;;
33840;SDS011;20142;28.494;-16.312;2023-05-10T20:06:50;26.02;;;4.68;;
33840;SDS011;20142;28.494;-16.312;2023-05-10T20:11:52;22.77;;;4.00;;
33840;SDS011;20142;28.494;-16.312;2023-05-10T20:16:54;26.38;;;5.05;;
33840;SDS011;20142;28.494;-16.312;2023-05-10T20:21:55;37.15;;;6.43;;
33840;SDS011;20142;28.494;-16.312;2023-05-10T20:26:58;31.90;;;5.35;;
33840;SDS011;20142;28.494;-16.312;2023-05-10T20:32:00;25.20;;;5.18;;
33840;SDS011;20142;28.494;-16.312;2023-05-10T20:37:01;26.88;;;4.93;;
33840;SDS011;20142;28.494;-16.312;2023-05-10T20:42:03;34.80;;;5.75;;
33840;SDS011;20142;28.494;-16.312;2023-05-10T20:47:05;36.20;;;5.78;;
33840;SDS011;20142;28.494;-16.312;2023-05-10T20:52:07;29.70;;;5.15;;
33840;SDS011;20142;28.494;-16.312;2023-05-10T20:57:09;29.80;;;5.13;;
33840;SDS011;20142;28.494;-16.312;2023-05-10T21:02:14;30.75;;;6.10;;
33840;SDS011;20142;28.494;-16.312;2023-05-10T21:07:16;43.80;;;7.63;;
33840;SDS011;20142;28.494;-16.312;2023-05-10T21:12:18;32.15;;;5.93;;
33840;SDS011;20142;28.494;-16.312;2023-05-10T21:17:19;51.03;;;7.85;;
33840;SDS011;20142;28.494;-16.312;2023-05-10T21:22:21;45.83;;;7.38;;
33840;SDS011;20142;28.494;-16.312;2023-05-10T21:27:23;38.13;;;6.88;;
33840;SDS011;20142;28.494;-16.312;2023-05-10T21:32:25;35.35;;;6.20;;
33840;SDS011;20142;28.494;-16.312;2023-05-10T21:37:26;31.05;;;6.35;;
33840;SDS011;20142;28.494;-16.312;2023-05-10T21:42:28;37.50;;;6.78;;
33840;SDS011;20142;28.494;-16.312;2023-05-10T21:47:31;43.60;;;7.13;;
33840;SDS011;20142;28.494;-16.312;2023-05-10T21:52:33;24.25;;;4.35;;
33840;SDS011;20142;28.494;-16.312;2023-05-10T21:57:35;29.25;;;5.60;;
33840;SDS011;20142;28.494;-16.312;2023-05-10T22:02:37;33.50;;;5.18;;
33840;SDS011;20142;28.494;-16.312;2023-05-10T22:07:39;27.38;;;5.35;;
33840;SDS011;20142;28.494;-16.312;2023-05-10T22:12:42;36.33;;;6.30;;
33840;SDS011;20142;28.494;-16.312;2023-05-10T22:17:44;33.90;;;6.63;;
33840;SDS011;20142;28.494;-16.312;2023-05-10T22:22:45;38.78;;;7.38;;
33840;SDS011;20142;28.494;-16.312;2023-05-10T22:27:49;37.65;;;6.10;;
33840;SDS011;20142;28.494;-16.312;2023-05-10T22:32:51;43.97;;;7.65;;
33840;SDS011;20142;28.494;-16.312;2023-05-10T22:37:53;44.70;;;6.45;;
33840;SDS011;20142;28.494;-16.312;2023-05-10T22:42:54;31.30;;;5.53;;
33840;SDS011;20142;28.494;-16.312;2023-05-10T22:47:56;36.00;;;6.22;;
33840;SDS011;20142;28.494;-16.312;2023-05-10T22:52:59;39.35;;;6.68;;
33840;SDS011;20142;28.494;-16.312;2023-05-10T22:58:01;32.28;;;5.90;;
33840;SDS011;20142;28.494;-16.312;2023-05-10T23:03:03;27.40;;;5.32;;
33840;SDS011;20142;28.494;-16.312;2023-05-10T23:08:06;33.08;;;5.43;;
33840;SDS011;20142;28.494;-16.312;2023-05-10T23:13:07;27.98;;;5.40;;
33840;SDS011;20142;28.494;-16.312;2023-05-10T23:18:09;28.48;;;4.93;;
33840;SDS011;20142;28.494;-16.312;2023-05-10T23:23:12;27.63;;;4.93;;
33840;SDS011;20142;28.494;-16.312;2023-05-10T23:28:14;30.77;;;5.40;;
33840;SDS011;20142;28.494;-16.312;2023-05-10T23:33:16;33.67;;;4.75;;
33840;SDS011;20142;28.494;-16.312;2023-05-10T23:38:17;23.60;;;4.50;;
33840;SDS011;20142;28.494;-16.312;2023-05-10T23:43:19;27.25;;;4.60;;
33840;SDS011;20142;28.494;-16.312;2023-05-10T23:48:21;21.60;;;3.40;;
33840;SDS011;20142;28.494;-16.312;2023-05-10T23:53:23;26.20;;;4.68;;
33840;SDS011;20142;28.494;-16.312;2023-05-10T23:58:25;26.38;;;4.78;;
